createdAt,value
2023-06-23T00:00:48.349Z,1014.02
2023-06-23T00:01:48.351Z,1013.95
2023-06-23T00:02:48.264Z,1013.93
2023-06-23T00:03:48.250Z,1013.90
2023-06-23T00:04:48.269Z,1013.94
2023-06-23T00:05:48.147Z,1013.90
2023-06-23T00:06:48.216Z,1013.89
2023-06-23T00:07:48.110Z,1013.95
2023-06-23T00:08:48.096Z,1013.98
2023-06-23T00:09:48.104Z,1014.06
2023-06-23T00:10:48.043Z,1014.04
2023-06-23T00:11:48.124Z,1014.09
2023-06-23T00:12:48.000Z,1014.09
2023-06-23T00:13:48.003Z,1014.07
2023-06-23T00:14:47.959Z,1014.10
2023-06-23T00:15:48.044Z,1014.12
2023-06-23T00:16:47.918Z,1014.08
2023-06-23T00:17:48.084Z,1014.07
2023-06-23T00:18:47.914Z,1014.16
2023-06-23T00:19:47.859Z,1014.16
2023-06-23T00:20:47.836Z,1014.18
2023-06-23T00:21:47.897Z,1014.23
2023-06-23T00:22:47.813Z,1014.26
2023-06-23T00:23:47.795Z,1014.28
2023-06-23T00:24:47.753Z,1014.23
2023-06-23T00:25:47.739Z,1014.26
2023-06-23T00:26:47.818Z,1014.20
2023-06-23T00:27:47.699Z,1014.18
2023-06-23T00:28:47.734Z,1014.18
2023-06-23T00:29:47.667Z,1014.16
2023-06-23T00:30:47.626Z,1014.13
2023-06-23T00:31:47.653Z,1014.15
2023-06-23T00:32:47.700Z,1014.14
2023-06-23T00:33:47.574Z,1014.13
2023-06-23T00:34:47.567Z,1014.17
2023-06-23T00:35:47.519Z,1014.18
2023-06-23T00:36:47.503Z,1014.22
2023-06-23T00:37:47.477Z,1014.26
2023-06-23T00:38:47.522Z,1014.25
2023-06-23T00:39:47.440Z,1014.25
2023-06-23T00:40:47.512Z,1014.33
2023-06-23T00:41:47.418Z,1014.31
2023-06-23T00:42:47.428Z,1014.39
2023-06-23T00:43:47.364Z,1014.42
2023-06-23T00:44:47.447Z,1014.46
2023-06-23T00:45:47.310Z,1014.48
2023-06-23T00:46:47.345Z,1014.49
2023-06-23T00:47:47.392Z,1014.49
2023-06-23T00:48:47.267Z,1014.52
2023-06-23T00:49:47.265Z,1014.54
2023-06-23T00:50:47.206Z,1014.53
2023-06-23T00:51:47.299Z,1014.56
2023-06-23T00:52:47.165Z,1014.58
2023-06-23T00:53:47.166Z,1014.58
2023-06-23T00:54:47.201Z,1014.67
2023-06-23T00:55:47.113Z,1014.74
2023-06-23T00:56:47.110Z,1014.88
2023-06-23T00:57:47.060Z,1014.88
2023-06-23T00:58:47.038Z,1014.95
2023-06-23T00:59:47.016Z,1014.94
2023-06-23T01:00:47.040Z,1014.95
2023-06-23T01:01:46.981Z,1014.92
2023-06-23T01:02:47.157Z,1014.94
2023-06-23T01:03:46.989Z,1014.94
2023-06-23T01:04:46.909Z,1014.96
2023-06-23T01:05:46.973Z,1014.89
2023-06-23T01:06:46.879Z,1014.93
2023-06-23T01:07:46.886Z,1014.95
2023-06-23T01:08:46.838Z,1014.87
2023-06-23T01:09:46.901Z,1014.86
2023-06-23T01:10:46.804Z,1014.90
2023-06-23T01:11:46.825Z,1014.87
2023-06-23T01:12:46.752Z,1014.87
2023-06-23T01:13:46.828Z,1014.88
2023-06-23T01:14:46.707Z,1014.85
2023-06-23T01:15:46.682Z,1014.91
2023-06-23T01:16:46.670Z,1014.90
2023-06-23T01:17:46.675Z,1014.87
2023-06-23T01:18:46.638Z,1014.91
2023-06-23T01:19:46.664Z,1014.90
2023-06-23T01:20:46.591Z,1014.95
2023-06-23T01:21:46.554Z,1014.98
2023-06-23T01:22:46.589Z,1015.01
2023-06-23T01:23:46.543Z,1015.05
2023-06-23T01:24:46.600Z,1015.02
2023-06-23T01:25:46.500Z,1015.05
2023-06-23T01:26:46.461Z,1015.07
2023-06-23T01:27:46.433Z,1015.11
2023-06-23T01:28:46.545Z,1015.10
2023-06-23T01:29:46.388Z,1015.12
2023-06-23T01:30:46.440Z,1015.15
2023-06-23T01:31:46.392Z,1015.12
2023-06-23T01:32:46.413Z,1015.13
2023-06-23T01:33:46.326Z,1015.16
2023-06-23T01:34:46.389Z,1015.18
2023-06-23T01:35:46.277Z,1015.22
2023-06-23T01:36:46.278Z,1015.18
2023-06-23T01:37:46.257Z,1015.23
2023-06-23T01:38:46.297Z,1015.22
2023-06-23T01:39:46.179Z,1015.12
2023-06-23T01:40:46.204Z,1015.21
2023-06-23T01:41:46.153Z,1015.17
2023-06-23T01:42:46.220Z,1015.20
2023-06-23T01:43:46.124Z,1015.23
2023-06-23T01:44:46.075Z,1015.19
2023-06-23T01:45:46.155Z,1015.20
2023-06-23T01:46:46.066Z,1015.23
2023-06-23T01:47:46.067Z,1015.19
2023-06-23T01:48:45.998Z,1015.26
2023-06-23T01:49:45.979Z,1015.27
2023-06-23T01:50:45.967Z,1015.26
2023-06-23T01:51:45.938Z,1015.25
2023-06-23T01:52:45.998Z,1015.26
2023-06-23T01:53:45.912Z,1015.25
2023-06-23T01:54:45.886Z,1015.31
2023-06-23T01:55:45.850Z,1015.32
2023-06-23T01:56:45.924Z,1015.38
2023-06-23T01:57:45.813Z,1015.37
2023-06-23T01:58:45.823Z,1015.43
2023-06-23T01:59:45.766Z,1015.42
2023-06-23T02:00:45.739Z,1015.44
2023-06-23T02:01:45.821Z,1015.43
2023-06-23T02:02:45.796Z,1015.42
2023-06-23T02:03:45.902Z,1015.46
2023-06-23T02:04:45.676Z,1015.48
2023-06-23T02:05:45.672Z,1015.52
2023-06-23T02:06:45.620Z,1015.56
2023-06-23T02:07:45.697Z,1015.59
2023-06-23T02:08:45.577Z,1015.60
2023-06-23T02:09:45.594Z,1015.60
2023-06-23T02:10:45.524Z,1015.62
2023-06-23T02:11:45.499Z,1015.63
2023-06-23T02:12:45.487Z,1015.60
2023-06-23T02:13:45.521Z,1015.60
2023-06-23T02:14:45.446Z,1015.61
2023-06-23T02:15:45.437Z,1015.60
2023-06-23T02:16:45.414Z,1015.65
2023-06-23T02:17:45.379Z,1015.60
2023-06-23T02:18:45.465Z,1015.62
2023-06-23T02:19:45.331Z,1015.64
2023-06-23T02:20:45.373Z,1015.66
2023-06-23T02:21:45.288Z,1015.69
2023-06-23T02:22:45.276Z,1015.67
2023-06-23T02:23:45.253Z,1015.70
2023-06-23T02:24:45.291Z,1015.70
2023-06-23T02:25:45.221Z,1015.73
2023-06-23T02:26:45.207Z,1015.76
2023-06-23T02:27:45.158Z,1015.79
2023-06-23T02:28:45.149Z,1015.80
2023-06-23T02:29:45.127Z,1015.80
2023-06-23T02:30:45.094Z,1015.82
2023-06-23T02:31:45.182Z,1015.80
2023-06-23T02:32:45.088Z,1015.89
2023-06-23T02:33:45.070Z,1015.83
2023-06-23T02:34:45.040Z,1015.86
2023-06-23T02:35:45.068Z,1015.88
2023-06-23T02:36:44.968Z,1015.92
2023-06-23T02:37:44.983Z,1015.91
2023-06-23T02:38:44.944Z,1015.92
2023-06-23T02:39:44.908Z,1015.94
2023-06-23T02:40:44.883Z,1015.96
2023-06-23T02:41:44.903Z,1015.98
2023-06-23T02:42:44.844Z,1015.99
2023-06-23T02:43:44.968Z,1015.97
2023-06-23T02:44:44.802Z,1015.96
2023-06-23T02:45:44.802Z,1016.00
2023-06-23T02:46:44.843Z,1015.95
2023-06-23T02:47:44.802Z,1016.00
2023-06-23T02:48:44.754Z,1016.01
2023-06-23T02:49:44.702Z,1016.08
2023-06-23T02:50:44.694Z,1016.06
2023-06-23T02:51:44.650Z,1016.08
2023-06-23T02:52:44.678Z,1016.09
2023-06-23T02:53:44.622Z,1016.11
2023-06-23T02:54:44.707Z,1016.14
2023-06-23T02:55:44.565Z,1016.18
2023-06-23T02:56:44.605Z,1016.21
2023-06-23T02:57:44.626Z,1016.25
2023-06-23T02:58:44.518Z,1016.17
2023-06-23T02:59:44.524Z,1016.20
2023-06-23T03:00:44.519Z,1016.23
2023-06-23T03:01:44.571Z,1016.20
2023-06-23T03:02:44.463Z,1016.26
2023-06-23T03:03:44.493Z,1016.25
2023-06-23T03:04:44.377Z,1016.28
2023-06-23T03:05:44.379Z,1016.27
2023-06-23T03:06:44.345Z,1016.30
2023-06-23T03:07:44.316Z,1016.33
2023-06-23T03:08:44.387Z,1016.33
2023-06-23T03:09:44.270Z,1016.29
2023-06-23T03:10:44.309Z,1016.29
2023-06-23T03:11:44.229Z,1016.28
2023-06-23T03:12:44.240Z,1016.29
2023-06-23T03:13:44.199Z,1016.32
2023-06-23T03:14:44.262Z,1016.33
2023-06-23T03:15:44.156Z,1016.32
2023-06-23T03:16:44.141Z,1016.33
2023-06-23T03:17:44.130Z,1016.34
2023-06-23T03:18:44.094Z,1016.38
2023-06-23T03:19:44.062Z,1016.36
2023-06-23T03:20:44.069Z,1016.36
2023-06-23T03:21:44.012Z,1016.38
2023-06-23T03:22:44.097Z,1016.41
2023-06-23T03:23:43.983Z,1016.45
2023-06-23T03:24:43.944Z,1016.48
2023-06-23T03:25:44.005Z,1016.47
2023-06-23T03:26:43.904Z,1016.53
2023-06-23T03:27:43.922Z,1016.51
2023-06-23T03:28:43.879Z,1016.53
2023-06-23T03:29:43.957Z,1016.48
2023-06-23T03:30:43.846Z,1016.52
2023-06-23T03:31:43.838Z,1016.55
2023-06-23T03:32:43.829Z,1016.52
2023-06-23T03:33:43.854Z,1016.51
2023-06-23T03:34:43.733Z,1016.50
2023-06-23T03:35:43.746Z,1016.54
2023-06-23T03:36:43.717Z,1016.55
2023-06-23T03:37:43.781Z,1016.57
2023-06-23T03:38:43.657Z,1016.57
2023-06-23T03:39:43.695Z,1016.59
2023-06-23T03:40:43.608Z,1016.70
2023-06-23T03:41:43.591Z,1016.70
2023-06-23T03:42:43.621Z,1016.80
2023-06-23T03:43:43.557Z,1016.77
2023-06-23T03:44:43.626Z,1016.74
2023-06-23T03:45:43.495Z,1016.85
2023-06-23T03:46:43.556Z,1016.81
2023-06-23T03:47:43.474Z,1016.84
2023-06-23T03:48:43.578Z,1016.81
2023-06-23T03:49:43.411Z,1016.88
2023-06-23T03:50:43.462Z,1016.90
2023-06-23T03:51:43.365Z,1016.88
2023-06-23T03:52:50.560Z,1016.86
2023-06-23T03:54:47.341Z,1016.89
2023-06-23T03:55:47.287Z,1016.88
2023-06-23T03:57:51.322Z,1016.80
2023-06-23T03:58:51.280Z,1016.87
2023-06-23T03:59:51.247Z,1016.81
2023-06-23T04:00:51.217Z,1016.76
2023-06-23T04:01:51.238Z,1016.77
2023-06-23T04:02:51.280Z,1016.75
2023-06-23T04:03:51.238Z,1016.69
2023-06-23T04:04:51.139Z,1016.70
2023-06-23T04:05:51.117Z,1016.73
2023-06-23T04:06:51.167Z,1016.73
2023-06-23T04:07:51.064Z,1016.74
2023-06-23T04:08:51.065Z,1016.77
2023-06-23T04:09:51.031Z,1016.82
2023-06-23T04:10:51.093Z,1016.81
2023-06-23T04:11:50.989Z,1016.83
2023-06-23T04:12:51.003Z,1016.86
2023-06-23T04:13:50.955Z,1016.87
2023-06-23T04:14:50.913Z,1016.95
2023-06-23T04:15:50.913Z,1016.94
2023-06-23T04:16:50.873Z,1016.98
2023-06-23T04:17:51.030Z,1016.99
2023-06-23T04:18:50.836Z,1017.01
2023-06-23T04:19:50.831Z,1017.06
2023-06-23T04:20:50.798Z,1017.11
2023-06-23T04:21:50.865Z,1017.09
2023-06-23T04:22:50.738Z,1017.08
2023-06-23T04:23:50.769Z,1017.11
2023-06-23T04:24:50.710Z,1017.13
2023-06-23T04:25:50.673Z,1017.14
2023-06-23T04:26:50.666Z,1017.09
2023-06-23T04:27:50.695Z,1017.16
2023-06-23T04:28:50.637Z,1017.19
2023-06-23T04:29:50.607Z,1017.22
2023-06-23T04:30:50.566Z,1017.16
2023-06-23T04:31:50.647Z,1017.18
2023-06-23T04:32:50.712Z,1017.20
2023-06-23T04:33:50.515Z,1017.17
2023-06-23T04:34:50.554Z,1017.21
2023-06-23T04:35:50.464Z,1017.20
2023-06-23T04:36:50.466Z,1017.23
2023-06-23T04:37:50.430Z,1017.27
2023-06-23T04:38:50.489Z,1017.23
2023-06-23T04:39:50.375Z,1017.23
2023-06-23T04:40:50.392Z,1017.24
2023-06-23T04:41:50.344Z,1017.27
2023-06-23T04:42:50.309Z,1017.31
2023-06-23T04:43:50.301Z,1017.25
2023-06-23T04:44:50.326Z,1017.33
2023-06-23T04:45:50.272Z,1017.32
2023-06-23T04:46:50.321Z,1017.32
2023-06-23T04:47:50.203Z,1017.43
2023-06-23T04:48:50.218Z,1017.40
2023-06-23T04:49:50.238Z,1017.46
2023-06-23T04:50:50.137Z,1017.47
2023-06-23T04:51:52.929Z,1017.47
2023-06-23T04:52:50.097Z,1017.54
2023-06-23T04:53:50.074Z,1017.56
2023-06-23T04:54:50.051Z,1017.52
2023-06-23T04:55:50.079Z,1017.55
2023-06-23T04:56:50.011Z,1017.58
2023-06-23T04:57:50.200Z,1017.58
2023-06-23T04:58:49.994Z,1017.61
2023-06-23T04:59:49.962Z,1017.66
2023-06-23T05:00:49.952Z,1017.66
2023-06-23T05:01:49.961Z,1017.69
2023-06-23T05:02:50.133Z,1017.68
2023-06-23T05:03:50.043Z,1017.77
2023-06-23T05:04:49.867Z,1017.73
2023-06-23T05:05:49.918Z,1017.79
2023-06-23T05:06:49.819Z,1017.74
2023-06-23T05:07:49.867Z,1017.75
2023-06-23T05:08:49.767Z,1017.75
2023-06-23T05:09:49.774Z,1017.75
2023-06-23T05:10:49.787Z,1017.76
2023-06-23T05:11:49.698Z,1017.77
2023-06-23T05:12:49.690Z,1017.81
2023-06-23T05:13:49.671Z,1017.80
2023-06-23T05:14:49.705Z,1017.85
2023-06-23T05:15:49.608Z,1017.83
2023-06-23T05:16:49.604Z,1017.84
2023-06-23T05:17:49.722Z,1017.82
2023-06-23T05:18:49.577Z,1017.79
2023-06-23T05:19:49.560Z,1017.83
2023-06-23T05:20:49.503Z,1017.83
2023-06-23T05:21:49.497Z,1017.86
2023-06-23T05:22:49.540Z,1017.90
2023-06-23T05:23:53.419Z,1017.94
2023-06-23T05:24:49.421Z,1017.91
2023-06-23T05:25:49.480Z,1017.94
2023-06-23T05:26:49.377Z,1017.94
2023-06-23T05:27:49.365Z,1017.92
2023-06-23T05:28:49.400Z,1017.94
2023-06-23T05:29:49.317Z,1017.99
2023-06-23T05:30:49.387Z,1018.02
2023-06-23T05:31:49.273Z,1018.02
2023-06-23T05:32:49.336Z,1018.02
2023-06-23T05:33:49.242Z,1017.99
2023-06-23T05:34:49.258Z,1018.03
2023-06-23T05:35:49.339Z,1018.01
2023-06-23T05:36:49.282Z,1018.00
2023-06-23T05:37:49.140Z,1018.01
2023-06-23T05:38:49.148Z,1018.03
2023-06-23T05:39:49.172Z,1018.03
2023-06-23T05:40:49.098Z,1018.01
2023-06-23T05:41:49.101Z,1018.03
2023-06-23T05:42:49.033Z,1018.04
2023-06-23T05:43:49.098Z,1018.05
2023-06-23T05:44:48.998Z,1018.08
2023-06-23T05:45:49.038Z,1018.10
2023-06-23T05:46:48.997Z,1018.09
2023-06-23T05:47:49.076Z,1018.06
2023-06-23T05:48:48.934Z,1018.08
2023-06-23T05:49:48.888Z,1018.08
2023-06-23T05:50:48.877Z,1018.09
2023-06-23T05:51:48.949Z,1018.09
2023-06-23T05:52:48.836Z,1018.11
2023-06-23T05:53:48.880Z,1018.10
2023-06-23T05:54:48.806Z,1018.17
2023-06-23T05:55:48.772Z,1018.19
2023-06-23T05:56:48.745Z,1018.10
2023-06-23T05:57:48.793Z,1018.20
2023-06-23T05:58:48.726Z,1018.19
2023-06-23T05:59:48.705Z,1018.17
2023-06-23T06:00:48.731Z,1018.21
2023-06-23T06:01:48.716Z,1018.18
2023-06-23T06:02:48.647Z,1018.22
2023-06-23T06:03:48.666Z,1018.24
2023-06-23T06:04:48.576Z,1018.27
2023-06-23T06:05:48.664Z,1018.27
2023-06-23T06:06:48.548Z,1018.28
2023-06-23T06:07:48.558Z,1018.28
2023-06-23T06:08:48.522Z,1018.33
2023-06-23T06:09:48.591Z,1018.37
2023-06-23T06:10:48.461Z,1018.36
2023-06-23T06:11:48.484Z,1018.37
2023-06-23T06:12:51.096Z,1018.44
2023-06-23T06:13:48.504Z,1018.43
2023-06-23T06:14:48.392Z,1018.52
2023-06-23T06:15:48.415Z,1018.52
2023-06-23T06:16:48.352Z,1018.55
2023-06-23T06:17:48.384Z,1018.55
2023-06-23T06:18:48.321Z,1018.60
2023-06-23T06:19:49.371Z,1018.61
2023-06-23T06:20:48.250Z,1018.57
2023-06-23T06:21:49.378Z,1018.59
2023-06-23T06:22:49.571Z,1018.59
2023-06-23T06:23:48.198Z,1018.58
2023-06-23T06:24:48.194Z,1018.58
2023-06-23T06:25:48.161Z,1018.61
2023-06-23T06:26:48.184Z,1018.60
2023-06-23T06:27:48.106Z,1018.64
2023-06-23T06:28:48.100Z,1018.64
2023-06-23T06:29:48.080Z,1018.66
2023-06-23T06:30:48.127Z,1018.67
2023-06-23T06:31:48.125Z,1018.74
2023-06-23T06:32:48.084Z,1018.72
2023-06-23T06:33:48.004Z,1018.73
2023-06-23T06:34:47.966Z,1018.72
2023-06-23T06:35:48.054Z,1018.74
2023-06-23T06:36:47.956Z,1018.73
2023-06-23T06:37:47.906Z,1018.74
2023-06-23T06:38:47.978Z,1018.72
2023-06-23T06:39:47.864Z,1018.73
2023-06-23T06:40:47.924Z,1018.79
2023-06-23T06:41:47.825Z,1018.76
2023-06-23T06:42:47.982Z,1018.79
2023-06-23T06:43:47.796Z,1018.83
2023-06-23T06:44:47.818Z,1018.87
2023-06-23T06:45:47.815Z,1018.87
2023-06-23T06:46:47.723Z,1018.90
2023-06-23T06:47:47.757Z,1018.89
2023-06-23T06:48:47.722Z,1018.96
2023-06-23T06:49:48.762Z,1019.00
2023-06-23T06:50:47.661Z,1018.96
2023-06-23T06:51:47.697Z,1018.96
2023-06-23T06:52:47.656Z,1019.01
2023-06-23T06:53:47.598Z,1019.00
2023-06-23T06:54:47.698Z,1019.01
2023-06-23T06:55:47.563Z,1019.00
2023-06-23T06:56:47.679Z,1019.02
2023-06-23T06:57:47.502Z,1019.02
2023-06-23T06:58:47.604Z,1019.01
2023-06-23T06:59:47.490Z,1018.97
2023-06-23T07:00:47.585Z,1018.99
2023-06-23T07:01:47.501Z,1018.99
2023-06-23T07:02:47.499Z,1019.03
2023-06-23T07:03:47.512Z,1018.98
2023-06-23T07:04:47.516Z,1018.99
2023-06-23T07:05:47.344Z,1019.00
2023-06-23T07:06:48.376Z,1019.00
2023-06-23T07:07:47.315Z,1019.04
2023-06-23T07:08:47.297Z,1019.02
2023-06-23T07:09:47.404Z,1018.99
2023-06-23T07:10:47.254Z,1019.02
2023-06-23T07:11:47.285Z,1018.99
2023-06-23T07:12:47.205Z,1018.99
2023-06-23T07:13:47.239Z,1019.06
2023-06-23T07:14:47.217Z,1019.03
2023-06-23T07:15:47.307Z,1019.09
2023-06-23T07:16:47.145Z,1019.08
2023-06-23T07:17:47.164Z,1019.07
2023-06-23T07:18:47.226Z,1019.09
2023-06-23T07:19:47.079Z,1019.06
2023-06-23T07:20:47.093Z,1019.11
2023-06-23T07:21:47.049Z,1019.11
2023-06-23T07:22:47.016Z,1019.09
2023-06-23T07:23:47.066Z,1019.12
2023-06-23T07:24:46.968Z,1019.15
2023-06-23T07:25:47.073Z,1019.18
2023-06-23T07:26:46.982Z,1019.17
2023-06-23T07:27:46.961Z,1019.17
2023-06-23T07:28:47.006Z,1019.23
2023-06-23T07:29:46.876Z,1019.26
2023-06-23T07:30:46.925Z,1019.26
2023-06-23T07:31:46.846Z,1019.27
2023-06-23T07:32:47.981Z,1019.26
2023-06-23T07:33:46.806Z,1019.31
2023-06-23T07:34:46.904Z,1019.33
2023-06-23T07:35:46.772Z,1019.35
2023-06-23T07:36:46.808Z,1019.36
2023-06-23T07:37:46.724Z,1019.35
2023-06-23T07:38:46.770Z,1019.38
2023-06-23T07:39:46.687Z,1019.35
2023-06-23T07:40:46.671Z,1019.35
2023-06-23T07:41:49.349Z,1019.36
2023-06-23T07:42:46.703Z,1019.33
2023-06-23T07:43:46.692Z,1019.32
2023-06-23T07:44:46.612Z,1019.36
2023-06-23T07:45:46.704Z,1019.33
2023-06-23T07:46:46.652Z,1019.33
2023-06-23T07:47:47.670Z,1019.35
2023-06-23T07:48:46.533Z,1019.36
2023-06-23T07:49:46.542Z,1019.31
2023-06-23T07:50:46.978Z,1019.30
2023-06-23T07:51:46.553Z,1019.36
2023-06-23T07:52:46.432Z,1019.35
2023-06-23T07:53:58.183Z,1019.35
2023-06-23T07:54:46.409Z,1019.35
2023-06-23T07:55:46.479Z,1019.35
2023-06-23T07:56:46.359Z,1019.37
2023-06-23T07:57:46.396Z,1019.32
2023-06-23T07:58:46.343Z,1019.39
2023-06-23T07:59:46.326Z,1019.37
2023-06-23T08:00:46.291Z,1019.41
2023-06-23T08:01:46.327Z,1019.39
2023-06-23T08:02:46.360Z,1019.44
2023-06-23T08:03:46.444Z,1019.43
2023-06-23T08:04:46.306Z,1019.46
2023-06-23T08:05:46.223Z,1019.48
2023-06-23T08:06:46.326Z,1019.50
2023-06-23T08:07:46.156Z,1019.44
2023-06-23T08:08:46.171Z,1019.51
2023-06-23T08:09:46.112Z,1019.48
2023-06-23T08:10:46.115Z,1019.47
2023-06-23T08:11:46.100Z,1019.46
2023-06-23T08:12:46.080Z,1019.55
2023-06-23T08:13:46.051Z,1019.56
2023-06-23T08:14:46.099Z,1019.59
2023-06-23T08:15:46.035Z,1019.57
2023-06-23T08:16:46.017Z,1019.59
2023-06-23T08:17:46.838Z,1019.58
2023-06-23T08:18:45.966Z,1019.57
2023-06-23T08:19:46.034Z,1019.55
2023-06-23T08:20:45.942Z,1019.59
2023-06-23T08:21:45.949Z,1019.55
2023-06-23T08:22:45.875Z,1019.53
2023-06-23T08:23:45.976Z,1019.56
2023-06-23T08:24:45.846Z,1019.53
2023-06-23T08:25:45.892Z,1019.58
2023-06-23T08:26:45.802Z,1019.57
2023-06-23T08:27:45.783Z,1019.60
2023-06-23T08:28:45.793Z,1019.61
2023-06-23T08:29:45.821Z,1019.62
2023-06-23T08:30:45.783Z,1019.64
2023-06-23T08:31:45.886Z,1019.72
2023-06-23T08:32:45.711Z,1019.65
2023-06-23T08:33:45.715Z,1019.68
2023-06-23T08:34:45.725Z,1019.71
2023-06-23T08:35:45.712Z,1019.74
2023-06-23T08:36:45.641Z,1019.76
2023-06-23T08:37:45.610Z,1019.77
2023-06-23T08:38:45.607Z,1019.76
2023-06-23T08:39:45.589Z,1019.83
2023-06-23T08:40:45.571Z,1019.79
2023-06-23T08:41:45.564Z,1019.76
2023-06-23T08:42:45.582Z,1019.79
2023-06-23T08:43:45.606Z,1019.80
2023-06-23T08:44:45.475Z,1019.82
2023-06-23T08:45:45.465Z,1019.82
2023-06-23T08:47:04.389Z,1019.84
2023-06-23T08:47:45.587Z,1019.85
2023-06-23T08:48:45.527Z,1019.88
2023-06-23T08:49:45.397Z,1019.90
2023-06-23T08:50:45.381Z,1019.92
2023-06-23T08:51:45.466Z,1019.92
2023-06-23T08:52:45.340Z,1019.95
2023-06-23T08:53:45.355Z,1019.93
2023-06-23T08:54:45.301Z,1019.99
2023-06-23T08:55:45.283Z,1019.93
2023-06-23T08:56:45.265Z,1019.97
2023-06-23T08:57:45.278Z,1019.96
2023-06-23T08:58:45.379Z,1019.94
2023-06-23T08:59:45.304Z,1019.98
2023-06-23T09:00:45.237Z,1019.95
2023-06-23T09:01:45.228Z,1020.01
2023-06-23T09:02:45.211Z,1020.02
2023-06-23T09:03:45.220Z,1020.01
2023-06-23T09:04:45.123Z,1020.05
2023-06-23T09:05:45.127Z,1020.03
2023-06-23T09:06:45.104Z,1020.01
2023-06-23T09:07:45.143Z,1020.02
2023-06-23T09:08:45.073Z,1020.03
2023-06-23T09:09:45.055Z,1020.05
2023-06-23T09:10:45.069Z,1020.06
2023-06-23T09:11:45.013Z,1020.07
2023-06-23T09:12:45.013Z,1020.05
2023-06-23T09:13:45.083Z,1020.08
2023-06-23T09:14:44.949Z,1020.13
2023-06-23T09:16:44.918Z,1020.10
2023-06-23T09:17:44.947Z,1020.08
2023-06-23T09:18:44.890Z,1020.09
2023-06-23T09:19:44.918Z,1020.10
2023-06-23T09:20:46.320Z,1020.05
2023-06-23T09:21:45.030Z,1020.14
2023-06-23T09:22:44.824Z,1020.11
2023-06-23T09:23:44.814Z,1020.10
2023-06-23T09:24:44.870Z,1020.18
2023-06-23T09:25:44.785Z,1020.17
2023-06-23T09:26:44.766Z,1020.19
2023-06-23T09:27:44.730Z,1020.24
2023-06-23T09:28:44.718Z,1020.25
2023-06-23T09:29:44.725Z,1020.22
2023-06-23T09:30:44.761Z,1020.22
2023-06-23T09:31:44.665Z,1020.23
2023-06-23T09:32:44.771Z,1020.20
2023-06-23T09:33:44.654Z,1020.27
2023-06-23T09:34:44.633Z,1020.25
2023-06-23T09:35:44.649Z,1020.35
2023-06-23T09:36:44.595Z,1020.36
2023-06-23T09:37:44.644Z,1020.32
2023-06-23T09:38:44.560Z,1020.39
2023-06-23T09:39:44.573Z,1020.39
2023-06-23T09:40:44.532Z,1020.47
2023-06-23T09:41:52.673Z,1020.47
2023-06-23T09:42:44.484Z,1020.49
2023-06-23T09:43:44.626Z,1020.49
2023-06-23T09:44:44.472Z,1020.52
2023-06-23T09:45:44.449Z,1020.49
2023-06-23T09:46:44.422Z,1020.51
2023-06-23T09:47:44.561Z,1020.50
2023-06-23T09:48:44.403Z,1020.49
2023-06-23T09:49:44.434Z,1020.55
2023-06-23T09:50:44.354Z,1020.52
2023-06-23T09:51:44.335Z,1020.56
2023-06-23T09:54:27.216Z,1020.54
2023-06-23T09:55:27.147Z,1020.55
2023-06-23T09:57:31.204Z,1020.55
2023-06-23T09:58:31.177Z,1020.55
2023-06-23T10:00:35.465Z,1020.60
2023-06-23T10:01:35.231Z,1020.58
2023-06-23T10:03:39.459Z,1020.61
2023-06-23T10:04:39.201Z,1020.61
2023-06-23T10:06:43.384Z,1020.63
2023-06-23T10:07:43.205Z,1020.63
2023-06-23T10:09:47.291Z,1020.62
2023-06-23T10:10:47.237Z,1020.63
2023-06-23T10:12:51.288Z,1020.60
2023-06-23T10:13:51.254Z,1020.64
2023-06-23T10:15:44.460Z,1020.63
2023-06-23T10:16:44.303Z,1020.69
2023-06-23T10:18:48.578Z,1020.66
2023-06-23T10:19:48.405Z,1020.69
2023-06-23T10:21:52.548Z,1020.69
2023-06-23T10:22:52.530Z,1020.66
2023-06-23T10:24:56.819Z,1020.64
2023-06-23T10:25:56.707Z,1020.59
2023-06-23T10:28:00.797Z,1020.58
2023-06-23T10:29:00.766Z,1020.67
2023-06-23T10:31:05.085Z,1020.67
2023-06-23T10:32:04.957Z,1020.68
2023-06-23T10:34:09.179Z,1020.67
2023-06-23T10:35:08.994Z,1020.65
2023-06-23T10:37:13.165Z,1020.71
2023-06-23T10:38:13.125Z,1020.68
2023-06-23T10:40:17.647Z,1020.63
2023-06-23T10:41:17.229Z,1020.63
2023-06-23T10:43:21.526Z,1020.72
2023-06-23T10:44:21.346Z,1020.63
2023-06-23T10:46:25.517Z,1020.62
2023-06-23T10:47:25.517Z,1020.60
2023-06-23T10:49:29.764Z,1020.65
2023-06-23T10:50:29.579Z,1020.64
2023-06-23T10:52:33.880Z,1020.69
2023-06-23T10:53:33.834Z,1020.69
2023-06-23T10:55:26.830Z,1020.68
2023-06-23T10:56:26.658Z,1020.64
2023-06-23T10:58:30.950Z,1020.73
2023-06-23T10:59:30.854Z,1020.76
2023-06-23T11:01:35.121Z,1020.69
2023-06-23T11:02:34.963Z,1020.66
2023-06-23T11:04:39.218Z,1020.71
2023-06-23T11:05:39.015Z,1020.65
2023-06-23T11:07:43.198Z,1020.56
2023-06-23T11:08:43.061Z,1020.60
2023-06-23T11:10:47.348Z,1020.53
2023-06-23T11:11:47.155Z,1020.60
2023-06-23T11:13:51.221Z,1020.61
2023-06-23T11:14:51.161Z,1020.56
2023-06-23T11:16:55.241Z,1020.58
2023-06-23T11:17:55.221Z,1020.58
2023-06-23T11:19:59.264Z,1020.61
2023-06-23T11:20:59.191Z,1020.62
2023-06-23T11:23:03.317Z,1020.68
2023-06-23T11:24:03.226Z,1020.64
2023-06-23T11:26:07.294Z,1020.63
2023-06-23T11:27:07.241Z,1020.63
2023-06-23T11:29:11.323Z,1020.76
2023-06-23T11:30:11.308Z,1020.73
2023-06-23T11:32:15.439Z,1020.72
2023-06-23T11:33:15.360Z,1020.68
2023-06-23T11:35:08.381Z,1020.68
2023-06-23T11:36:08.342Z,1020.70
2023-06-23T11:38:12.404Z,1020.71
2023-06-23T11:39:12.388Z,1020.73
2023-06-23T11:41:16.393Z,1020.77
2023-06-23T11:42:16.352Z,1020.73
2023-06-23T11:44:20.423Z,1020.82
2023-06-23T11:45:20.355Z,1020.90
2023-06-23T11:47:24.485Z,1020.77
2023-06-23T11:48:24.370Z,1020.84
2023-06-23T11:50:28.454Z,1020.84
2023-06-23T11:51:28.385Z,1020.81
2023-06-23T11:53:32.467Z,1020.95
2023-06-23T11:54:32.482Z,1020.93
2023-06-23T11:56:36.505Z,1020.91
2023-06-23T11:57:36.446Z,1020.89
2023-06-23T11:59:40.527Z,1020.85
2023-06-23T12:00:40.433Z,1020.87
2023-06-23T12:02:44.537Z,1020.90
2023-06-23T12:03:44.599Z,1020.94
2023-06-23T12:05:37.899Z,1020.93
2023-06-23T12:06:37.443Z,1020.85
2023-06-23T12:08:41.485Z,1020.88
2023-06-23T12:09:41.421Z,1020.88
2023-06-23T12:11:45.501Z,1020.91
2023-06-23T12:12:45.435Z,1021.00
2023-06-23T12:14:49.523Z,1020.99
2023-06-23T12:15:49.485Z,1020.99
2023-06-23T12:17:53.562Z,1020.95
2023-06-23T12:18:53.489Z,1020.93
2023-06-23T12:20:57.550Z,1020.91
2023-06-23T12:21:57.486Z,1020.89
2023-06-23T12:24:01.567Z,1020.86
2023-06-23T12:25:01.506Z,1020.89
2023-06-23T12:27:05.669Z,1020.92
2023-06-23T12:28:05.529Z,1020.92
2023-06-23T12:30:09.607Z,1020.92
2023-06-23T12:31:09.536Z,1020.89
2023-06-23T12:33:13.657Z,1020.91
2023-06-23T12:34:13.551Z,1020.93
2023-06-23T12:36:17.653Z,1020.84
2023-06-23T12:37:18.896Z,1020.84
2023-06-23T12:39:21.644Z,1020.84
2023-06-23T12:40:21.586Z,1020.89
2023-06-23T12:42:25.665Z,1020.86
2023-06-23T12:43:25.603Z,1020.80
2023-06-23T12:45:18.630Z,1020.85
2023-06-23T12:46:18.691Z,1020.70
2023-06-23T12:48:22.627Z,1020.69
2023-06-23T12:49:22.575Z,1020.66
2023-06-23T12:51:26.640Z,1020.70
2023-06-23T12:52:26.588Z,1020.71
2023-06-23T12:54:30.673Z,1020.86
2023-06-23T12:55:30.940Z,1020.86
2023-06-23T12:57:34.701Z,1020.92
2023-06-23T12:58:34.636Z,1020.77
2023-06-23T13:00:38.689Z,1020.78
2023-06-23T13:01:38.644Z,1020.76
2023-06-23T13:03:42.810Z,1020.82
2023-06-23T13:04:42.637Z,1020.82
2023-06-23T13:06:46.719Z,1020.82
2023-06-23T13:07:46.653Z,1020.83
2023-06-23T13:09:50.698Z,1020.76
2023-06-23T13:10:50.663Z,1020.68
2023-06-23T13:12:54.753Z,1020.78
2023-06-23T13:13:54.693Z,1020.75
2023-06-23T13:15:47.708Z,1020.82
2023-06-23T13:16:47.639Z,1020.74
2023-06-23T13:18:52.741Z,1020.78
2023-06-23T13:19:51.659Z,1020.81
2023-06-23T13:21:55.724Z,1020.89